createdAt,value
2017-06-23T00:00:52.327Z,99.90
2017-06-23T00:03:23.716Z,99.90
2017-06-23T00:05:52.038Z,99.90
2017-06-23T00:08:21.221Z,99.90
2017-06-23T00:10:50.312Z,99.90
2017-06-23T00:13:18.660Z,99.90
2017-06-23T00:15:46.972Z,99.90
2017-06-23T00:18:16.082Z,99.90
2017-06-23T00:20:45.182Z,99.90
2017-06-23T00:23:13.502Z,99.90
2017-06-23T00:25:41.837Z,99.90
2017-06-23T00:28:10.156Z,99.90
2017-06-23T00:30:38.547Z,99.90
2017-06-23T00:33:06.841Z,99.90
2017-06-23T00:35:35.177Z,99.90
2017-06-23T00:38:03.487Z,99.90
2017-06-23T00:40:31.830Z,99.90
2017-06-23T00:43:00.163Z,99.90
2017-06-23T00:45:28.492Z,99.90
2017-06-23T00:47:56.799Z,99.90
2017-06-23T00:50:25.223Z,99.90
2017-06-23T00:52:53.542Z,99.90
2017-06-23T00:55:21.893Z,99.90
2017-06-23T00:57:50.208Z,99.90
2017-06-23T01:00:19.326Z,99.90
2017-06-23T01:02:47.686Z,99.90
2017-06-23T01:05:16.776Z,99.90
2017-06-23T01:07:45.134Z,99.90
2017-06-23T01:10:13.484Z,99.90
2017-06-23T01:12:41.793Z,99.90
2017-06-23T01:15:10.098Z,99.90
2017-06-23T01:17:38.453Z,99.90
2017-06-23T01:20:06.777Z,99.90
2017-06-23T01:22:35.947Z,99.90
2017-06-23T01:25:05.027Z,99.90
2017-06-23T01:27:33.771Z,99.90
2017-06-23T01:30:02.093Z,99.90
2017-06-23T01:32:30.515Z,99.90
2017-06-23T01:34:58.833Z,99.90
2017-06-23T01:37:27.174Z,99.90
2017-06-23T01:39:55.509Z,99.90
2017-06-23T01:42:23.841Z,99.90
2017-06-23T01:44:52.147Z,99.90
2017-06-23T01:47:20.508Z,99.90
2017-06-23T01:49:48.837Z,99.90
2017-06-23T01:52:17.191Z,99.90
2017-06-23T01:54:45.503Z,99.90
2017-06-23T01:57:13.867Z,99.90
2017-06-23T01:59:42.259Z,99.90
2017-06-23T02:02:10.564Z,99.90
2017-06-23T02:04:38.897Z,99.90
2017-06-23T02:07:07.224Z,99.90
2017-06-23T02:09:35.564Z,99.90
2017-06-23T02:12:03.889Z,99.90
2017-06-23T02:14:32.234Z,99.90
2017-06-23T02:17:00.552Z,99.90
2017-06-23T02:19:28.889Z,99.90
2017-06-23T02:21:57.205Z,99.90
2017-06-23T02:24:25.539Z,99.90
2017-06-23T02:26:53.838Z,99.90
2017-06-23T02:29:22.184Z,99.90
2017-06-23T02:31:50.502Z,99.90
2017-06-23T02:34:19.029Z,99.90
2017-06-23T02:36:48.088Z,99.90
2017-06-23T02:39:16.411Z,99.90
2017-06-23T02:41:44.745Z,99.90
2017-06-23T02:44:13.063Z,99.90
2017-06-23T02:46:41.381Z,99.90
2017-06-23T02:49:09.711Z,99.90
2017-06-23T02:51:38.002Z,99.90
2017-06-23T02:54:06.460Z,99.90
2017-06-23T02:56:34.780Z,99.90
2017-06-23T02:59:03.114Z,99.90
2017-06-23T03:01:31.432Z,99.90
2017-06-23T03:03:59.731Z,99.90
2017-06-23T03:06:28.088Z,99.90
2017-06-23T03:08:56.404Z,99.90
2017-06-23T03:11:25.918Z,99.90
2017-06-23T03:13:54.990Z,99.90
2017-06-23T03:16:23.307Z,99.90
2017-06-23T03:18:51.670Z,99.90
2017-06-23T03:21:21.399Z,99.90
2017-06-23T03:23:49.717Z,99.90
2017-06-23T03:26:18.040Z,99.90
2017-06-23T03:28:46.377Z,99.90
2017-06-23T03:31:14.692Z,99.90
2017-06-23T03:33:43.013Z,99.90
2017-06-23T03:36:11.333Z,99.90
2017-06-23T03:38:40.411Z,99.90
2017-06-23T03:41:08.739Z,99.90
2017-06-23T03:43:37.079Z,99.90
2017-06-23T03:46:06.194Z,99.90
2017-06-23T03:48:34.528Z,99.90
2017-06-23T03:51:02.895Z,99.90
2017-06-23T03:53:31.230Z,99.90
2017-06-23T03:55:59.570Z,99.90
2017-06-23T03:58:27.897Z,99.90
2017-06-23T04:00:56.207Z,99.90
2017-06-23T04:03:24.541Z,99.90
2017-06-23T04:05:53.243Z,99.90
2017-06-23T04:08:21.558Z,99.90
2017-06-23T04:10:49.868Z,99.90
2017-06-23T04:13:18.194Z,99.90
2017-06-23T04:15:46.483Z,99.90
2017-06-23T04:18:14.824Z,99.90
2017-06-23T04:20:43.226Z,99.90
2017-06-23T04:23:11.582Z,99.90
2017-06-23T04:25:40.642Z,99.90
2017-06-23T04:28:08.970Z,99.90
2017-06-23T04:30:37.280Z,99.90
2017-06-23T04:33:06.386Z,99.90
2017-06-23T04:35:34.686Z,99.90
2017-06-23T04:38:03.959Z,99.90
2017-06-23T04:40:33.049Z,99.90
2017-06-23T04:43:02.157Z,99.90
2017-06-23T04:45:31.231Z,99.90
2017-06-23T04:47:59.551Z,99.90
2017-06-23T04:50:27.879Z,99.90
2017-06-23T04:52:56.234Z,99.90
2017-06-23T04:55:24.558Z,99.90
2017-06-23T04:57:52.875Z,99.90
2017-06-23T05:00:21.217Z,99.90
2017-06-23T05:02:49.612Z,99.90
2017-06-23T05:05:18.017Z,99.90
2017-06-23T05:07:46.357Z,99.90
2017-06-23T05:10:14.659Z,99.90
2017-06-23T05:12:43.013Z,99.90
2017-06-23T05:15:11.335Z,99.90
2017-06-23T05:17:39.655Z,99.90
2017-06-23T05:20:07.992Z,99.90
2017-06-23T05:22:36.306Z,99.90
2017-06-23T05:25:04.626Z,99.90
2017-06-23T05:27:33.043Z,99.90
2017-06-23T05:30:01.335Z,99.90
2017-06-23T05:32:29.643Z,99.90
2017-06-23T05:34:57.980Z,99.90
2017-06-23T05:37:27.071Z,99.90
2017-06-23T05:39:55.387Z,99.90
2017-06-23T05:42:23.688Z,99.90
2017-06-23T05:44:52.011Z,99.90
2017-06-23T05:47:20.349Z,99.90
2017-06-23T05:49:48.663Z,99.90
2017-06-23T05:52:16.972Z,99.90
2017-06-23T05:54:45.299Z,99.90
2017-06-23T05:57:13.599Z,99.90
2017-06-23T05:59:41.912Z,99.90
2017-06-23T06:02:10.646Z,99.90
2017-06-23T06:04:38.941Z,99.90
2017-06-23T06:07:07.283Z,99.90
2017-06-23T06:09:35.590Z,99.90
2017-06-23T06:12:03.909Z,99.90
2017-06-23T06:14:32.246Z,99.90
2017-06-23T06:17:00.543Z,99.90
2017-06-23T06:19:28.871Z,99.90
2017-06-23T06:21:57.945Z,99.90
2017-06-23T06:24:26.256Z,99.90
2017-06-23T06:26:55.465Z,99.90
2017-06-23T06:29:23.806Z,99.90
2017-06-23T06:31:52.221Z,99.90
2017-06-23T06:34:20.641Z,99.90
2017-06-23T06:36:48.974Z,99.90
2017-06-23T06:39:17.305Z,99.90
2017-06-23T06:41:45.639Z,99.90
2017-06-23T06:44:13.973Z,99.90
2017-06-23T06:46:42.274Z,99.90
2017-06-23T06:49:10.603Z,99.90
2017-06-23T06:51:38.907Z,99.90
2017-06-23T06:54:07.245Z,99.90
2017-06-23T06:56:35.559Z,99.90
2017-06-23T06:59:03.883Z,99.90
2017-06-23T07:01:32.227Z,99.90
2017-06-23T07:04:01.317Z,99.90
2017-06-23T07:06:29.692Z,99.90
2017-06-23T07:08:58.028Z,99.90
2017-06-23T07:11:26.392Z,99.90
2017-06-23T07:13:54.729Z,99.90
2017-06-23T07:16:23.052Z,99.90
2017-06-23T07:18:51.413Z,99.90
2017-06-23T07:21:19.771Z,99.90
2017-06-23T07:23:48.897Z,99.90
2017-06-23T07:26:17.966Z,99.90
2017-06-23T07:28:46.301Z,99.90
2017-06-23T07:31:14.628Z,99.90
2017-06-23T07:33:43.108Z,99.90
2017-06-23T07:36:11.516Z,99.90
2017-06-23T07:38:39.901Z,99.90
2017-06-23T07:41:08.244Z,99.90
2017-06-23T07:43:36.604Z,99.90
2017-06-23T07:46:05.677Z,99.90
2017-06-23T07:48:34.997Z,99.90
2017-06-23T07:51:04.143Z,99.90
2017-06-23T07:53:32.478Z,99.90
2017-06-23T07:56:00.882Z,99.90
2017-06-23T07:58:29.660Z,99.90
2017-06-23T08:00:58.051Z,99.90
2017-06-23T08:03:26.344Z,99.90
2017-06-23T08:05:54.793Z,99.90
2017-06-23T08:08:23.136Z,99.90
2017-06-23T08:10:51.660Z,99.90
2017-06-23T08:13:20.010Z,99.90
2017-06-23T08:15:48.354Z,99.90
2017-06-23T08:18:16.792Z,99.90
2017-06-23T08:20:45.120Z,99.90
2017-06-23T08:23:13.457Z,99.90
2017-06-23T08:25:41.732Z,99.90
2017-06-23T08:28:10.047Z,99.90
2017-06-23T08:30:38.445Z,99.90
2017-06-23T08:33:06.963Z,99.90
2017-06-23T08:35:35.290Z,99.90
2017-06-23T08:38:03.621Z,99.90
2017-06-23T08:40:31.921Z,99.90
2017-06-23T08:43:00.303Z,99.90
2017-06-23T08:45:28.624Z,99.90
2017-06-23T08:47:56.930Z,99.90
2017-06-23T08:50:25.307Z,99.90
2017-06-23T08:52:53.669Z,99.90
2017-06-23T08:55:21.991Z,99.90
2017-06-23T08:57:50.288Z,99.90
2017-06-23T09:00:18.684Z,99.90
2017-06-23T09:02:47.873Z,99.90
2017-06-23T09:05:16.160Z,99.90
2017-06-23T09:07:44.462Z,99.90
2017-06-23T09:10:13.524Z,99.90
2017-06-23T09:12:41.875Z,99.90
2017-06-23T09:15:11.093Z,99.90
2017-06-23T09:17:39.406Z,99.90
2017-06-23T09:20:08.120Z,99.90
2017-06-23T09:22:36.442Z,99.90
2017-06-23T09:25:04.754Z,99.90
2017-06-23T09:27:33.080Z,99.90
2017-06-23T09:30:02.246Z,99.90
2017-06-23T09:32:30.577Z,99.90
2017-06-23T09:34:58.911Z,99.90
2017-06-23T09:37:27.207Z,99.90
2017-06-23T09:39:56.295Z,99.90
2017-06-23T09:42:25.361Z,99.90
2017-06-23T09:44:53.678Z,99.90
2017-06-23T09:47:22.006Z,99.90
2017-06-23T09:49:50.354Z,99.90
2017-06-23T09:52:18.669Z,99.90
2017-06-23T09:54:46.993Z,99.90
2017-06-23T09:57:15.732Z,99.90
2017-06-23T09:59:44.023Z,99.90
2017-06-23T10:02:12.364Z,99.90
2017-06-23T10:04:40.676Z,99.90
2017-06-23T10:07:09.040Z,99.90
2017-06-23T10:09:37.336Z,99.90
2017-06-23T10:12:05.649Z,99.90
2017-06-23T10:14:34.037Z,99.90
2017-06-23T10:17:02.359Z,99.90
2017-06-23T10:19:30.683Z,99.90
2017-06-23T10:21:59.010Z,99.90
2017-06-23T10:24:27.310Z,99.90
2017-06-23T10:26:55.703Z,99.90
2017-06-23T10:29:24.006Z,99.90
2017-06-23T10:31:52.339Z,99.90
2017-06-23T10:34:20.648Z,99.90
2017-06-23T10:36:49.023Z,99.90
2017-06-23T10:39:17.321Z,99.90
2017-06-23T10:41:46.520Z,99.90
2017-06-23T10:44:14.853Z,99.90
2017-06-23T10:46:43.158Z,99.90
2017-06-23T10:49:11.498Z,99.90
2017-06-23T10:51:39.869Z,99.90
2017-06-23T10:54:08.186Z,99.90
2017-06-23T10:56:36.605Z,99.90
2017-06-23T10:59:05.849Z,99.90
2017-06-23T11:01:34.236Z,99.90
2017-06-23T11:04:02.555Z,99.90
2017-06-23T11:06:30.952Z,99.10
2017-06-23T11:08:59.908Z,99.90
2017-06-23T11:11:28.215Z,99.30
2017-06-23T11:13:56.589Z,99.10
2017-06-23T11:16:26.686Z,99.50
2017-06-23T11:18:55.069Z,99.80
2017-06-23T11:21:23.372Z,99.30
2017-06-23T11:23:51.696Z,99.50
2017-06-23T11:26:19.993Z,99.30
2017-06-23T11:28:48.324Z,99.90
2017-06-23T11:31:16.627Z,99.50
2017-06-23T11:33:44.962Z,98.50
2017-06-23T11:36:13.660Z,98.80
2017-06-23T11:38:42.551Z,98.30
2017-06-23T11:41:11.652Z,99.30
2017-06-23T11:43:40.053Z,99.30
2017-06-23T11:46:08.490Z,99.00
2017-06-23T11:48:36.939Z,99.30
2017-06-23T11:51:05.420Z,99.20
2017-06-23T11:53:33.837Z,98.50
2017-06-23T11:56:02.923Z,99.30
2017-06-23T11:58:31.324Z,99.30
2017-06-23T12:00:59.645Z,98.30
2017-06-23T12:03:28.019Z,98.40
2017-06-23T12:05:56.382Z,97.60
2017-06-23T12:08:24.737Z,98.50
2017-06-23T12:10:53.078Z,98.90
2017-06-23T12:13:21.412Z,98.60
2017-06-23T12:15:49.716Z,98.30
2017-06-23T12:18:18.049Z,97.40
2017-06-23T12:20:46.426Z,98.30
2017-06-23T12:23:14.793Z,98.00
2017-06-23T12:25:43.099Z,99.00
2017-06-23T12:28:11.396Z,99.60
2017-06-23T12:30:39.730Z,99.90
2017-06-23T12:33:08.048Z,99.90
2017-06-23T12:35:36.398Z,99.90
2017-06-23T12:38:04.703Z,99.90
2017-06-23T12:40:33.044Z,99.50
2017-06-23T12:43:01.348Z,99.30
2017-06-23T12:45:29.643Z,99.60
2017-06-23T12:47:58.120Z,99.30
2017-06-23T12:50:26.425Z,98.90
2017-06-23T12:52:55.526Z,99.30
2017-06-23T12:55:23.840Z,99.30
2017-06-23T12:57:52.177Z,98.40
2017-06-23T13:00:20.619Z,97.30
2017-06-23T13:02:48.914Z,97.40
2017-06-23T13:05:17.392Z,97.50
2017-06-23T13:07:46.080Z,96.30
2017-06-23T13:10:14.413Z,96.60
2017-06-23T13:12:42.726Z,96.20
2017-06-23T13:15:11.118Z,97.50
2017-06-23T13:17:40.205Z,97.50
2017-06-23T13:20:08.568Z,97.70
2017-06-23T13:22:36.885Z,96.70
2017-06-23T13:25:05.218Z,97.30
2017-06-23T13:27:33.529Z,97.60
2017-06-23T13:30:02.680Z,98.60
2017-06-23T13:32:31.004Z,98.60
2017-06-23T13:35:00.107Z,97.90
2017-06-23T13:37:29.195Z,96.70
2017-06-23T13:39:57.493Z,96.60
2017-06-23T13:42:25.807Z,96.80
2017-06-23T13:44:54.139Z,95.70
2017-06-23T13:47:22.486Z,96.60
2017-06-23T13:49:50.944Z,96.60
2017-06-23T13:52:19.268Z,96.20
2017-06-23T13:54:47.598Z,96.60
2017-06-23T13:57:15.903Z,96.70
2017-06-23T13:59:44.975Z,97.20
2017-06-23T14:02:13.329Z,97.20
2017-06-23T14:04:41.620Z,97.40
2017-06-23T14:07:09.939Z,98.00
2017-06-23T14:09:38.249Z,98.40
2017-06-23T14:12:06.579Z,98.40
2017-06-23T14:14:35.638Z,98.20
2017-06-23T14:17:03.964Z,98.30
2017-06-23T14:19:32.258Z,98.40
2017-06-23T14:22:00.597Z,98.90
2017-06-23T14:24:28.894Z,98.50
2017-06-23T14:26:57.273Z,98.80
2017-06-23T14:29:25.602Z,99.00
2017-06-23T14:31:53.931Z,98.70
2017-06-23T14:34:22.295Z,99.30
2017-06-23T14:36:51.391Z,99.80
2017-06-23T14:39:19.719Z,99.70
2017-06-23T14:41:48.015Z,99.90
2017-06-23T14:44:16.357Z,99.20
2017-06-23T14:46:44.662Z,99.40
2017-06-23T14:49:13.032Z,99.80
2017-06-23T14:51:41.403Z,99.20
2017-06-23T14:54:09.743Z,99.90
2017-06-23T14:56:38.086Z,99.90
2017-06-23T14:59:06.636Z,99.90
2017-06-23T15:01:35.052Z,99.90
2017-06-23T15:04:03.385Z,99.90
2017-06-23T15:06:31.709Z,99.90
2017-06-23T15:09:00.058Z,99.90
2017-06-23T15:11:28.417Z,99.90
2017-06-23T15:13:56.743Z,99.90
2017-06-23T15:16:25.043Z,99.90
2017-06-23T15:18:53.364Z,99.90
2017-06-23T15:21:21.727Z,99.90
2017-06-23T15:23:50.043Z,99.90
2017-06-23T15:26:18.409Z,99.90
2017-06-23T15:28:46.710Z,99.90
2017-06-23T15:31:15.792Z,99.90
2017-06-23T15:33:44.147Z,99.90
2017-06-23T15:36:12.797Z,99.90
2017-06-23T15:38:41.087Z,99.90
2017-06-23T15:41:09.439Z,99.90
2017-06-23T15:43:37.781Z,99.90
2017-06-23T15:46:06.166Z,99.90
2017-06-23T15:48:34.547Z,99.90
2017-06-23T15:51:02.884Z,99.90
2017-06-23T15:53:31.195Z,99.90
2017-06-23T15:55:59.520Z,99.90
2017-06-23T15:58:27.870Z,99.90
2017-06-23T16:00:56.422Z,99.90
2017-06-23T16:03:24.744Z,99.90
2017-06-23T16:05:53.044Z,99.90
2017-06-23T16:08:21.397Z,99.90
2017-06-23T16:10:49.736Z,99.90
2017-06-23T16:13:18.064Z,99.90
2017-06-23T16:15:46.373Z,99.90
2017-06-23T16:18:14.732Z,99.90
2017-06-23T16:20:43.024Z,99.90
2017-06-23T16:23:11.417Z,99.90
2017-06-23T16:25:39.734Z,99.90
2017-06-23T16:28:08.065Z,99.90
2017-06-23T16:30:37.165Z,99.90
2017-06-23T16:33:06.042Z,99.90
2017-06-23T16:35:34.356Z,99.90
2017-06-23T16:38:03.478Z,99.90
2017-06-23T16:40:31.790Z,99.90
2017-06-23T16:43:00.093Z,99.90
2017-06-23T16:45:29.280Z,99.90
2017-06-23T16:47:57.664Z,99.90
2017-06-23T16:50:26.296Z,99.90
2017-06-23T16:52:54.639Z,99.90
2017-06-23T16:55:23.731Z,99.90
2017-06-23T16:57:52.809Z,99.90
2017-06-23T17:00:21.261Z,99.90
2017-06-23T17:02:49.568Z,99.90
2017-06-23T17:05:17.913Z,99.90
2017-06-23T17:07:46.268Z,99.90
2017-06-23T17:10:14.558Z,99.90
2017-06-23T17:12:43.316Z,99.90
2017-06-23T17:15:11.623Z,99.90
2017-06-23T17:17:40.018Z,99.90
2017-06-23T17:20:08.421Z,99.90
2017-06-23T17:22:36.820Z,99.90
2017-06-23T17:25:05.936Z,99.90
2017-06-23T17:27:34.268Z,99.90
2017-06-23T17:30:02.628Z,99.90
2017-06-23T17:32:30.959Z,99.90
2017-06-23T17:34:59.356Z,99.90
2017-06-23T17:37:27.736Z,99.90
2017-06-23T17:39:56.039Z,99.90
2017-06-23T17:42:24.389Z,99.90
2017-06-23T17:44:52.763Z,99.90
2017-06-23T17:47:21.072Z,99.90
2017-06-23T17:49:49.799Z,99.90
2017-06-23T17:52:18.134Z,99.90
2017-06-23T17:54:46.456Z,99.90
2017-06-23T17:57:15.165Z,99.90
2017-06-23T17:59:43.623Z,99.90
2017-06-23T18:02:12.091Z,99.90
2017-06-23T18:04:41.252Z,99.90
2017-06-23T18:07:09.581Z,99.90
2017-06-23T18:09:37.926Z,99.90
2017-06-23T18:12:06.263Z,99.90
2017-06-23T18:14:34.626Z,99.90
2017-06-23T18:17:02.947Z,99.90
2017-06-23T18:19:31.252Z,99.90
2017-06-23T18:22:00.363Z,99.90
2017-06-23T18:24:28.681Z,99.90
2017-06-23T18:26:57.500Z,99.90
2017-06-23T18:29:25.909Z,99.90
2017-06-23T18:31:54.252Z,99.90
2017-06-23T18:34:22.570Z,99.90
2017-06-23T18:36:51.434Z,99.90
2017-06-23T18:39:24.903Z,99.90
2017-06-23T18:42:00.283Z,99.90
2017-06-23T18:44:28.611Z,99.90
2017-06-23T18:46:56.929Z,99.90
2017-06-23T18:49:26.130Z,99.90
2017-06-23T18:51:54.445Z,99.90
2017-06-23T18:54:22.741Z,99.90
2017-06-23T18:56:51.067Z,99.90
2017-06-23T18:59:19.395Z,99.90
2017-06-23T19:01:47.757Z,99.90
2017-06-23T19:04:16.072Z,99.90
2017-06-23T19:06:45.164Z,99.90
2017-06-23T19:09:14.244Z,99.90
2017-06-23T19:11:42.699Z,99.90
2017-06-23T19:14:11.015Z,99.90
2017-06-23T19:16:39.346Z,99.90
2017-06-23T19:19:07.664Z,99.90
2017-06-23T19:21:35.995Z,99.90
2017-06-23T19:24:04.328Z,99.90
2017-06-23T19:26:32.669Z,99.90
2017-06-23T19:29:00.986Z,99.90
2017-06-23T19:31:29.336Z,99.90
2017-06-23T19:33:59.152Z,99.90
2017-06-23T19:36:27.484Z,99.90
2017-06-23T19:38:55.820Z,99.90
2017-06-23T19:41:24.932Z,99.90
2017-06-23T19:43:53.242Z,99.90
2017-06-23T19:46:21.548Z,99.90
2017-06-23T19:48:49.859Z,99.90
2017-06-23T19:51:18.202Z,99.90
2017-06-23T19:53:46.532Z,99.90
2017-06-23T19:56:14.840Z,99.90
2017-06-23T19:58:43.590Z,99.90
2017-06-23T20:01:11.920Z,99.90
2017-06-23T20:03:40.233Z,99.90
2017-06-23T20:06:08.559Z,99.90
2017-06-23T20:08:36.915Z,99.90
2017-06-23T20:11:05.274Z,99.90
2017-06-23T20:13:33.586Z,99.90
2017-06-23T20:16:01.928Z,99.90
2017-06-23T20:18:30.257Z,99.90
2017-06-23T20:20:58.593Z,99.90
2017-06-23T20:23:26.894Z,99.90
2017-06-23T20:25:55.217Z,99.90
2017-06-23T20:28:24.289Z,99.90
2017-06-23T20:30:52.615Z,99.90
2017-06-23T20:33:20.938Z,99.90
2017-06-23T20:35:49.314Z,99.90
2017-06-23T20:38:17.639Z,99.90
2017-06-23T20:40:45.959Z,99.90
2017-06-23T20:43:14.317Z,99.90
2017-06-23T20:45:42.657Z,99.90
2017-06-23T20:48:11.758Z,99.90
2017-06-23T20:50:40.077Z,99.90
2017-06-23T20:53:08.856Z,99.90
2017-06-23T20:55:37.574Z,99.90
2017-06-23T20:58:05.868Z,99.90
2017-06-23T21:00:35.007Z,99.90
2017-06-23T21:03:03.328Z,99.90
2017-06-23T21:05:32.418Z,99.90
2017-06-23T21:08:00.839Z,99.90
2017-06-23T21:10:29.139Z,99.90
2017-06-23T21:12:57.453Z,99.90
2017-06-23T21:15:26.417Z,99.90
2017-06-23T21:17:54.744Z,99.90
2017-06-23T21:20:23.330Z,99.90
2017-06-23T21:22:51.643Z,99.90
2017-06-23T21:25:19.996Z,99.90
2017-06-23T21:27:48.327Z,99.90
2017-06-23T21:30:16.675Z,99.90
2017-06-23T21:32:45.378Z,99.90
2017-06-23T21:35:13.697Z,99.90
2017-06-23T21:37:42.066Z,99.90
2017-06-23T21:40:11.130Z,99.90
2017-06-23T21:42:39.506Z,99.90
2017-06-23T21:45:07.853Z,99.90
2017-06-23T21:47:36.265Z,99.90
2017-06-23T21:50:04.596Z,99.90
2017-06-23T21:52:32.902Z,99.90
2017-06-23T21:55:01.267Z,99.90
2017-06-23T21:57:29.567Z,99.90
2017-06-23T21:59:57.897Z,99.90
2017-06-23T22:02:26.295Z,99.90
2017-06-23T22:04:54.627Z,99.90
2017-06-23T22:07:23.795Z,99.90
2017-06-23T22:09:52.111Z,99.90
2017-06-23T22:12:20.455Z,99.90
2017-06-23T22:14:48.775Z,99.90
2017-06-23T22:17:17.132Z,99.90
2017-06-23T22:19:46.200Z,99.90
2017-06-23T22:22:14.528Z,99.90
2017-06-23T22:24:42.860Z,99.90
2017-06-23T22:27:11.179Z,99.90
2017-06-23T22:29:39.520Z,99.90
2017-06-23T22:32:07.831Z,99.90
2017-06-23T22:34:36.138Z,99.90
2017-06-23T22:37:04.488Z,99.90
2017-06-23T22:39:32.813Z,99.90
2017-06-23T22:42:01.159Z,99.90
2017-06-23T22:44:29.500Z,99.90
2017-06-23T22:46:58.576Z,99.90
2017-06-23T22:49:26.918Z,99.90
2017-06-23T22:51:55.677Z,99.90
2017-06-23T22:54:24.040Z,99.90
2017-06-23T22:56:52.392Z,99.90
2017-06-23T22:59:20.766Z,99.90
2017-06-23T23:01:49.108Z,99.90
2017-06-23T23:04:17.412Z,99.90
2017-06-23T23:06:45.747Z,99.90
2017-06-23T23:09:14.064Z,99.90
2017-06-23T23:11:42.383Z,99.90
2017-06-23T23:14:10.692Z,99.90
2017-06-23T23:16:39.039Z,99.90
2017-06-23T23:19:07.347Z,99.90
2017-06-23T23:21:35.663Z,99.90
2017-06-23T23:24:04.012Z,99.90
2017-06-23T23:26:32.314Z,99.90
2017-06-23T23:29:00.657Z,99.90
2017-06-23T23:31:28.970Z,99.90
2017-06-23T23:33:57.301Z,99.90
2017-06-23T23:36:25.624Z,99.90
2017-06-23T23:38:53.927Z,99.90
2017-06-23T23:41:22.269Z,99.90
2017-06-23T23:43:50.601Z,99.90
2017-06-23T23:46:18.922Z,99.90
2017-06-23T23:48:47.263Z,99.90
2017-06-23T23:51:15.600Z,99.90
2017-06-23T23:53:44.692Z,99.90
2017-06-23T23:56:13.779Z,99.90
2017-06-23T23:58:42.896Z,99.90
